createdAt,value
2023-04-02T00:01:06.666Z,76.40
2023-04-02T00:03:33.189Z,76.20
2023-04-02T00:05:59.762Z,76.10
2023-04-02T00:08:26.244Z,76.40
2023-04-02T00:10:52.722Z,76.20
2023-04-02T00:13:19.198Z,76.10
2023-04-02T00:15:45.672Z,76.20
2023-04-02T00:18:12.173Z,76.50
2023-04-02T00:20:38.707Z,76.50
2023-04-02T00:23:05.198Z,76.50
2023-04-02T00:25:31.679Z,76.60
2023-04-02T00:27:58.164Z,76.20
2023-04-02T00:30:24.649Z,76.00
2023-04-02T00:32:51.133Z,75.70
2023-04-02T00:35:17.638Z,75.50
2023-04-02T00:37:44.136Z,75.30
2023-04-02T00:40:10.648Z,75.50
2023-04-02T00:42:37.132Z,75.50
2023-04-02T00:45:03.609Z,75.20
2023-04-02T00:47:30.117Z,75.10
2023-04-02T00:49:56.630Z,75.00
2023-04-02T00:52:23.095Z,74.90
2023-04-02T00:54:49.570Z,75.20
2023-04-02T00:57:16.100Z,75.30
2023-04-02T00:59:42.618Z,75.10
2023-04-02T01:02:09.142Z,74.90
2023-04-02T01:04:35.684Z,74.70
2023-04-02T01:07:02.188Z,74.50
2023-04-02T01:09:28.642Z,74.50
2023-04-02T01:11:55.120Z,74.60
2023-04-02T01:14:21.609Z,74.50
2023-04-02T01:16:48.090Z,74.60
2023-04-02T01:19:14.562Z,74.50
2023-04-02T01:21:41.026Z,74.40
2023-04-02T01:24:07.508Z,74.50
2023-04-02T01:26:33.975Z,74.20
2023-04-02T01:29:00.469Z,74.40
2023-04-02T01:31:26.978Z,74.70
2023-04-02T01:33:53.470Z,74.20
2023-04-02T01:36:20.030Z,74.10
2023-04-02T01:38:46.575Z,74.00
2023-04-02T01:41:13.092Z,74.00
2023-04-02T01:43:39.567Z,74.00
2023-04-02T01:46:06.113Z,73.90
2023-04-02T01:48:32.606Z,73.90
2023-04-02T01:50:59.099Z,73.70
2023-04-02T01:53:25.587Z,73.70
2023-04-02T01:55:52.043Z,73.80
2023-04-02T01:58:18.659Z,73.40
2023-04-02T02:00:45.176Z,73.60
2023-04-02T02:03:11.782Z,73.40
2023-04-02T02:05:38.256Z,73.30
2023-04-02T02:08:04.754Z,73.40
2023-04-02T02:10:31.220Z,73.40
2023-04-02T02:12:57.706Z,73.50
2023-04-02T02:15:24.185Z,73.50
2023-04-02T02:17:50.705Z,73.50
2023-04-02T02:20:17.230Z,73.20
2023-04-02T02:22:43.706Z,73.30
2023-04-02T02:25:10.140Z,73.30
2023-04-02T02:27:36.638Z,73.00
2023-04-02T02:30:07.881Z,73.30
2023-04-02T02:32:34.364Z,73.40
2023-04-02T02:35:00.856Z,73.30
2023-04-02T02:37:27.334Z,73.00
2023-04-02T02:39:53.810Z,72.90
2023-04-02T02:42:20.283Z,73.00
2023-04-02T02:44:46.757Z,73.10
2023-04-02T02:47:13.250Z,72.70
2023-04-02T02:49:39.715Z,72.80
2023-04-02T02:52:06.185Z,72.90
2023-04-02T02:54:32.657Z,72.60
2023-04-02T02:56:59.214Z,72.50
2023-04-02T02:59:25.698Z,72.40
2023-04-02T03:01:52.166Z,72.40
2023-04-02T03:04:18.732Z,72.40
2023-04-02T03:06:45.273Z,72.30
2023-04-02T03:09:13.863Z,72.30
2023-04-02T03:11:40.342Z,72.20
2023-04-02T03:14:06.831Z,72.20
2023-04-02T03:16:33.299Z,72.10
2023-04-02T03:18:59.782Z,72.00
2023-04-02T03:21:26.277Z,72.10
2023-04-02T03:23:52.775Z,72.00
2023-04-02T03:26:19.251Z,72.00
2023-04-02T03:28:45.747Z,71.80
2023-04-02T03:31:12.266Z,71.90
2023-04-02T03:36:29.174Z,72.00
2023-04-02T03:38:55.899Z,71.90
2023-04-02T03:41:22.370Z,71.80
2023-04-02T03:43:48.854Z,71.60
2023-04-02T03:46:20.079Z,71.90
2023-04-02T03:48:46.598Z,71.70
2023-04-02T03:51:13.080Z,71.80
2023-04-02T03:53:39.587Z,71.60
2023-04-02T03:56:06.050Z,71.30
2023-04-02T03:58:32.555Z,71.10
2023-04-02T04:00:59.030Z,71.20
2023-04-02T04:03:25.519Z,71.20
2023-04-02T04:05:52.004Z,71.90
2023-04-02T04:08:18.532Z,71.10
2023-04-02T04:10:45.032Z,71.30
2023-04-02T04:13:11.515Z,71.60
2023-04-02T04:15:38.197Z,71.00
2023-04-02T04:18:04.780Z,71.30
2023-04-02T04:20:31.317Z,71.40
2023-04-02T04:23:01.984Z,71.70
2023-04-02T04:25:28.488Z,71.20
2023-04-02T04:27:54.966Z,71.00
2023-04-02T04:30:25.971Z,71.00
2023-04-02T04:32:52.475Z,71.10
2023-04-02T04:35:18.953Z,71.00
2023-04-02T04:37:45.422Z,70.80
2023-04-02T04:40:11.890Z,70.90
2023-04-02T04:42:38.392Z,70.70
2023-04-02T04:45:04.883Z,70.90
2023-04-02T04:47:31.394Z,70.40
2023-04-02T04:49:57.906Z,70.10
2023-04-02T04:52:24.380Z,70.20
2023-04-02T04:54:50.882Z,69.80
2023-04-02T04:57:17.398Z,69.40
2023-04-02T04:59:43.898Z,69.80
2023-04-02T05:02:14.171Z,69.30
2023-04-02T05:04:40.693Z,69.30
2023-04-02T05:07:07.249Z,68.90
2023-04-02T05:09:33.731Z,69.10
2023-04-02T05:12:00.215Z,69.00
2023-04-02T05:14:26.728Z,69.20
2023-04-02T05:16:53.242Z,68.80
2023-04-02T05:19:19.725Z,69.00
2023-04-02T05:21:46.192Z,68.70
2023-04-02T05:24:12.677Z,68.40
2023-04-02T05:26:39.156Z,68.40
2023-04-02T05:29:05.684Z,68.00
2023-04-02T05:31:32.234Z,68.00
2023-04-02T05:33:58.712Z,68.10
2023-04-02T05:36:25.269Z,67.70
2023-04-02T05:38:51.878Z,67.90
2023-04-02T05:41:18.360Z,68.00
2023-04-02T05:43:44.825Z,67.80
2023-04-02T05:46:11.313Z,67.50
2023-04-02T05:48:37.892Z,67.40
2023-04-02T05:51:04.377Z,67.60
2023-04-02T05:53:30.847Z,67.00
2023-04-02T05:55:57.366Z,67.20
2023-04-02T05:58:35.231Z,67.20
2023-04-02T06:01:02.933Z,67.50
2023-04-02T06:03:29.454Z,67.20
2023-04-02T06:05:55.990Z,67.40
2023-04-02T06:08:22.469Z,66.90
2023-04-02T06:10:48.983Z,67.60
2023-04-02T06:13:15.458Z,66.40
2023-04-02T06:15:41.918Z,66.60
2023-04-02T06:18:08.444Z,66.50
2023-04-02T06:20:34.949Z,66.80
2023-04-02T06:23:01.426Z,66.50
2023-04-02T06:25:27.993Z,66.60
2023-04-02T06:27:54.476Z,66.40
2023-04-02T06:30:20.950Z,66.40
2023-04-02T06:32:47.452Z,66.10
2023-04-02T06:35:13.989Z,65.80
2023-04-02T06:37:40.460Z,66.00
2023-04-02T06:40:08.049Z,66.30
2023-04-02T06:42:34.534Z,66.10
2023-04-02T06:45:00.997Z,66.30
2023-04-02T06:47:27.509Z,65.80
2023-04-02T06:49:53.992Z,65.40
2023-04-02T06:52:20.472Z,65.50
2023-04-02T06:54:46.983Z,65.50
2023-04-02T06:57:13.530Z,65.40
2023-04-02T06:59:40.028Z,65.10
2023-04-02T07:02:06.552Z,65.10
2023-04-02T07:04:33.087Z,65.10
2023-04-02T07:06:59.594Z,65.00
2023-04-02T07:09:26.069Z,64.80
2023-04-02T07:11:52.549Z,65.20
2023-04-02T07:14:19.033Z,65.20
2023-04-02T07:16:45.502Z,65.00
2023-04-02T07:19:11.974Z,64.90
2023-04-02T07:21:38.444Z,64.90
2023-04-02T07:24:04.914Z,64.90
2023-04-02T07:26:31.393Z,65.00
2023-04-02T07:28:57.878Z,64.80
2023-04-02T07:31:26.142Z,64.80
2023-04-02T07:33:52.623Z,64.50
2023-04-02T07:36:19.150Z,64.60
2023-04-02T07:38:45.671Z,64.40
2023-04-02T07:41:12.212Z,64.30
2023-04-02T07:43:38.689Z,64.40
2023-04-02T07:46:05.177Z,64.20
2023-04-02T07:48:31.653Z,64.40
2023-04-02T07:50:58.118Z,64.00
2023-04-02T07:53:24.597Z,64.20
2023-04-02T07:55:51.061Z,64.60
2023-04-02T07:58:17.533Z,64.20
2023-04-02T08:00:43.998Z,64.10
2023-04-02T08:03:10.503Z,63.80
2023-04-02T08:08:27.448Z,64.80
2023-04-02T08:10:53.942Z,63.80
2023-04-02T08:13:20.447Z,63.80
2023-04-02T08:15:46.939Z,63.70
2023-04-02T08:18:13.423Z,63.70
2023-04-02T08:20:39.923Z,63.90
2023-04-02T08:23:06.409Z,64.10
2023-04-02T08:25:33.169Z,64.30
2023-04-02T08:27:59.886Z,64.30
2023-04-02T08:30:26.363Z,64.50
2023-04-02T08:32:52.878Z,64.50
2023-04-02T08:35:19.387Z,64.50
2023-04-02T08:37:45.908Z,64.70
2023-04-02T08:40:14.094Z,64.80
2023-04-02T08:42:40.574Z,64.80
2023-04-02T08:45:22.923Z,65.00
2023-04-02T08:47:49.879Z,65.00
2023-04-02T08:50:16.344Z,65.20
2023-04-02T08:52:42.832Z,64.90
2023-04-02T08:55:09.291Z,65.20
2023-04-02T08:57:35.865Z,65.20
2023-04-02T09:00:02.440Z,65.20
2023-04-02T09:02:28.923Z,65.30
2023-04-02T09:04:55.505Z,65.20
2023-04-02T09:07:22.077Z,65.40
2023-04-02T09:09:48.554Z,65.40
2023-04-02T09:12:15.037Z,65.20
2023-04-02T09:14:41.529Z,65.30
2023-04-02T09:17:08.024Z,65.40
2023-04-02T09:19:34.498Z,65.30
2023-04-02T09:22:00.995Z,65.40
2023-04-02T09:24:27.462Z,65.40
2023-04-02T09:26:53.954Z,65.50
2023-04-02T09:29:20.425Z,65.10
2023-04-02T09:31:46.931Z,65.20
2023-04-02T09:34:13.435Z,65.20
2023-04-02T09:36:39.909Z,65.20
2023-04-02T09:39:06.413Z,65.30
2023-04-02T09:41:34.111Z,65.10
2023-04-02T09:44:01.593Z,64.90
2023-04-02T09:46:28.109Z,65.20
2023-04-02T09:48:54.641Z,65.00
2023-04-02T09:51:21.109Z,64.90
2023-04-02T09:53:47.602Z,64.90
2023-04-02T09:56:14.080Z,64.50
2023-04-02T09:58:40.572Z,65.70
2023-04-02T10:01:07.089Z,64.90
2023-04-02T10:03:33.611Z,64.90
2023-04-02T10:06:00.121Z,64.70
2023-04-02T10:08:26.620Z,64.50
2023-04-02T10:10:53.111Z,64.40
2023-04-02T10:13:19.608Z,64.40
2023-04-02T10:15:46.084Z,64.50
2023-04-02T10:18:12.556Z,64.40
2023-04-02T10:20:50.513Z,64.00
2023-04-02T10:23:17.953Z,63.20
2023-04-02T10:25:44.424Z,64.10
2023-04-02T10:28:10.912Z,63.50
2023-04-02T10:30:37.462Z,64.20
2023-04-02T10:33:04.037Z,64.00
2023-04-02T10:35:30.528Z,64.00
2023-04-02T10:37:57.068Z,63.40
2023-04-02T10:40:23.532Z,63.80
2023-04-02T10:42:50.013Z,63.60
2023-04-02T10:45:16.473Z,63.20
2023-04-02T10:47:42.978Z,63.50
2023-04-02T10:50:09.482Z,63.40
2023-04-02T10:52:35.950Z,62.00
2023-04-02T10:55:02.423Z,62.80
2023-04-02T10:57:30.104Z,62.50
2023-04-02T10:59:56.681Z,60.70
2023-04-02T11:02:23.202Z,61.40
2023-04-02T11:04:50.256Z,61.30
2023-04-02T11:07:16.857Z,61.20
2023-04-02T11:09:43.363Z,61.50
2023-04-02T11:12:09.851Z,59.70
2023-04-02T11:14:36.344Z,61.70
2023-04-02T11:17:02.795Z,60.50
2023-04-02T11:19:29.264Z,61.20
2023-04-02T11:22:00.020Z,60.10
2023-04-02T11:24:26.943Z,59.90
2023-04-02T11:26:53.424Z,60.40
2023-04-02T11:29:19.901Z,59.80
2023-04-02T11:31:46.438Z,60.60
2023-04-02T11:34:12.943Z,60.20
2023-04-02T11:36:39.411Z,58.60
2023-04-02T11:39:16.513Z,60.50
2023-04-02T11:41:44.071Z,59.60
2023-04-02T11:44:10.570Z,59.90
2023-04-02T11:46:37.116Z,60.20
2023-04-02T11:49:03.634Z,60.00
2023-04-02T11:51:30.245Z,60.00
2023-04-02T11:53:56.819Z,59.80
2023-04-02T11:56:23.289Z,58.60
2023-04-02T11:58:49.888Z,59.60
2023-04-02T12:01:16.348Z,59.80
2023-04-02T12:03:42.825Z,59.80
2023-04-02T12:06:09.307Z,58.10
2023-04-02T12:08:44.237Z,59.90
2023-04-02T12:11:17.309Z,60.10
2023-04-02T12:13:43.774Z,59.10
2023-04-02T12:16:10.249Z,59.10
2023-04-02T12:18:36.724Z,58.70
2023-04-02T12:21:03.228Z,59.00
2023-04-02T12:23:29.703Z,58.60
2023-04-02T12:25:56.192Z,58.40
2023-04-02T12:28:22.678Z,58.10
2023-04-02T12:30:49.194Z,58.40
2023-04-02T12:33:15.755Z,59.20
2023-04-02T12:35:42.286Z,58.50
2023-04-02T12:38:08.782Z,59.20
2023-04-02T12:40:35.609Z,60.00
2023-04-02T12:43:02.280Z,59.80
2023-04-02T12:45:29.737Z,59.90
2023-04-02T12:47:56.549Z,59.10
2023-04-02T12:50:23.052Z,59.00
2023-04-02T12:52:49.570Z,58.50
2023-04-02T12:55:16.087Z,59.40
2023-04-02T12:57:42.755Z,59.20
2023-04-02T13:00:09.352Z,59.30
2023-04-02T13:02:35.845Z,58.20
2023-04-02T13:05:02.387Z,58.70
2023-04-02T13:07:28.861Z,58.70
2023-04-02T13:09:55.354Z,59.50
2023-04-02T13:12:21.842Z,59.20
2023-04-02T13:14:48.301Z,59.90
2023-04-02T13:17:14.778Z,60.20
2023-04-02T13:19:41.239Z,59.70
2023-04-02T13:22:07.729Z,59.60
2023-04-02T13:24:34.208Z,59.50
2023-04-02T13:27:00.676Z,59.90
2023-04-02T13:29:27.176Z,58.80
2023-04-02T13:31:53.707Z,59.60
2023-04-02T13:34:20.198Z,59.30
2023-04-02T13:36:46.691Z,59.60
2023-04-02T13:39:13.166Z,59.30
2023-04-02T13:41:39.627Z,60.00
2023-04-02T13:44:06.117Z,59.40
2023-04-02T13:46:32.651Z,59.30
2023-04-02T13:48:59.159Z,58.80
2023-04-02T13:51:25.671Z,59.50
2023-04-02T13:53:52.135Z,59.40
2023-04-02T13:56:18.637Z,58.90
2023-04-02T13:58:45.123Z,59.20
2023-04-02T14:01:11.633Z,58.90
2023-04-02T14:03:38.135Z,58.70
2023-04-02T14:06:04.674Z,58.90
2023-04-02T14:08:31.170Z,58.00
2023-04-02T14:10:57.670Z,57.90
2023-04-02T14:13:24.147Z,57.80
2023-04-02T14:15:50.632Z,57.50
2023-04-02T14:18:17.101Z,57.80
2023-04-02T14:20:43.610Z,55.80
2023-04-02T14:23:10.098Z,54.60
2023-04-02T14:25:36.789Z,54.60
2023-04-02T14:28:03.495Z,56.30
2023-04-02T14:30:30.018Z,56.30
2023-04-02T14:32:56.547Z,56.70
2023-04-02T14:35:23.076Z,56.90
2023-04-02T14:37:49.560Z,57.50
2023-04-02T14:40:16.070Z,57.30
2023-04-02T14:42:42.558Z,56.80
2023-04-02T14:45:09.032Z,57.00
2023-04-02T14:47:35.597Z,57.70
2023-04-02T14:50:02.090Z,57.40
2023-04-02T14:52:28.573Z,57.40
2023-04-02T14:54:55.066Z,57.90
2023-04-02T14:57:21.686Z,58.00
2023-04-02T14:59:48.281Z,57.60
2023-04-02T15:02:14.773Z,57.80
2023-04-02T15:04:41.256Z,57.80
2023-04-02T15:07:07.783Z,57.40
2023-04-02T15:09:34.261Z,57.60
2023-04-02T15:12:00.795Z,58.00
2023-04-02T15:14:27.302Z,57.90
2023-04-02T15:16:53.826Z,57.70
2023-04-02T15:19:20.490Z,57.90
2023-04-02T15:21:57.478Z,58.00
2023-04-02T15:24:25.957Z,58.10
2023-04-02T15:26:52.448Z,58.20
2023-04-02T15:29:28.390Z,58.00
2023-04-02T15:31:56.056Z,58.10
2023-04-02T15:34:22.585Z,55.40
2023-04-02T15:36:49.072Z,57.50
2023-04-02T15:39:15.571Z,57.50
2023-04-02T15:41:42.053Z,58.20
2023-04-02T15:44:08.527Z,57.70
2023-04-02T15:46:35.009Z,57.40
2023-04-02T15:49:01.499Z,57.00
2023-04-02T15:51:28.001Z,57.40
2023-04-02T15:53:54.475Z,57.00
2023-04-02T15:56:26.731Z,56.70
2023-04-02T15:58:56.526Z,57.30
2023-04-02T16:01:23.076Z,57.00
2023-04-02T16:03:49.582Z,57.30
2023-04-02T16:06:16.089Z,57.40
2023-04-02T16:08:42.577Z,57.00
2023-04-02T16:11:09.068Z,57.00
2023-04-02T16:13:38.524Z,57.10
2023-04-02T16:16:05.146Z,57.20
2023-04-02T16:18:31.624Z,57.00
2023-04-02T16:20:58.106Z,57.70
2023-04-02T16:23:24.624Z,57.20
2023-04-02T16:25:51.101Z,57.20
2023-04-02T16:28:17.607Z,57.10
2023-04-02T16:30:44.099Z,56.80
2023-04-02T16:33:10.600Z,56.90
2023-04-02T16:35:43.122Z,57.10
2023-04-02T16:38:10.281Z,57.00
2023-04-02T16:40:38.713Z,57.30
2023-04-02T16:43:05.235Z,57.20
2023-04-02T16:45:31.735Z,57.30
2023-04-02T16:47:58.259Z,57.30
2023-04-02T16:50:24.776Z,57.10
2023-04-02T16:52:51.286Z,57.20
2023-04-02T16:55:17.752Z,56.90
2023-04-02T16:57:44.236Z,57.30
2023-04-02T17:00:10.719Z,57.00
2023-04-02T17:02:37.252Z,56.60
2023-04-02T17:05:03.812Z,57.30
2023-04-02T17:07:30.285Z,57.20
2023-04-02T17:09:56.757Z,57.30
2023-04-02T17:12:23.244Z,57.10
2023-04-02T17:14:49.728Z,57.30
2023-04-02T17:17:16.193Z,57.00
2023-04-02T17:19:42.684Z,57.10
2023-04-02T17:22:09.156Z,57.10
2023-04-02T17:24:35.645Z,57.00
2023-04-02T17:27:02.116Z,57.10
2023-04-02T17:29:28.593Z,56.80
2023-04-02T17:31:55.173Z,56.60
2023-04-02T17:34:21.691Z,56.80
2023-04-02T17:36:48.165Z,56.80
2023-04-02T17:39:14.645Z,56.60
2023-04-02T17:41:41.116Z,56.80
2023-04-02T17:44:07.594Z,57.00
2023-04-02T17:46:34.109Z,56.90
2023-04-02T17:49:00.590Z,56.90
2023-04-02T17:51:27.063Z,56.90
2023-04-02T17:53:53.548Z,57.00
2023-04-02T17:56:20.018Z,56.80
2023-04-02T17:58:46.500Z,56.90
2023-04-02T18:01:12.968Z,56.80
2023-04-02T18:03:39.547Z,56.70
2023-04-02T18:06:06.101Z,56.70
2023-04-02T18:08:32.606Z,56.60
2023-04-02T18:10:59.084Z,56.70
2023-04-02T18:13:25.597Z,56.90
2023-04-02T18:15:52.084Z,56.90
2023-04-02T18:18:18.555Z,56.70
2023-04-02T18:20:45.053Z,57.00
2023-04-02T18:23:11.515Z,56.90
2023-04-02T18:25:38.033Z,57.10
2023-04-02T18:28:04.499Z,56.90
2023-04-02T18:30:30.976Z,57.00
2023-04-02T18:32:57.471Z,57.00
2023-04-02T18:35:23.951Z,56.90
2023-04-02T18:37:50.419Z,56.90
2023-04-02T18:40:20.661Z,57.10
2023-04-02T18:42:47.154Z,56.90
2023-04-02T18:45:13.632Z,56.90
2023-04-02T18:47:40.172Z,57.00
2023-04-02T18:50:06.667Z,56.90
2023-04-02T18:52:33.125Z,56.90
2023-04-02T18:54:59.591Z,56.90
2023-04-02T18:57:26.150Z,56.90
2023-04-02T18:59:52.660Z,57.00
2023-04-02T19:02:20.969Z,56.80
2023-04-02T19:04:47.491Z,56.80
2023-04-02T19:07:13.967Z,56.70
2023-04-02T19:09:40.439Z,57.00
2023-04-02T19:12:06.923Z,56.70
2023-04-02T19:14:33.403Z,56.80
2023-04-02T19:16:59.899Z,56.90
2023-04-02T19:19:26.637Z,57.00
2023-04-02T19:21:53.119Z,57.00
2023-04-02T19:24:19.612Z,57.00
2023-04-02T19:26:46.094Z,56.80
2023-04-02T19:29:12.566Z,56.90
2023-04-02T19:31:39.110Z,56.90
2023-04-02T19:34:05.692Z,56.90
2023-04-02T19:36:32.187Z,56.90
2023-04-02T19:38:58.641Z,56.90
2023-04-02T19:41:25.107Z,56.70
2023-04-02T19:43:51.603Z,56.80
2023-04-02T19:46:20.729Z,56.80
2023-04-02T19:48:47.238Z,56.70
2023-04-02T19:51:13.739Z,56.70
2023-04-02T19:53:40.224Z,56.70
2023-04-02T19:56:08.710Z,56.80
2023-04-02T19:58:35.191Z,56.70
2023-04-02T20:01:01.778Z,56.70
2023-04-02T20:03:28.320Z,56.60
2023-04-02T20:05:54.808Z,56.70
2023-04-02T20:08:21.312Z,56.60
2023-04-02T20:10:47.799Z,56.70
2023-04-02T20:13:14.270Z,56.60
2023-04-02T20:15:44.729Z,56.60
2023-04-02T20:18:11.191Z,56.60
2023-04-02T20:20:37.968Z,56.60
2023-04-02T20:23:04.653Z,56.50
2023-04-02T20:25:31.171Z,56.60
2023-04-02T20:27:57.646Z,56.50
2023-04-02T20:30:24.116Z,56.50
2023-04-02T20:32:50.735Z,56.50
2023-04-02T20:35:17.268Z,56.50
2023-04-02T20:37:43.742Z,56.40
2023-04-02T20:40:10.214Z,56.40
2023-04-02T20:42:36.680Z,56.20
2023-04-02T20:45:03.148Z,56.30
2023-04-02T20:47:29.664Z,56.40
2023-04-02T20:49:56.140Z,56.30
2023-04-02T20:52:22.608Z,56.30
2023-04-02T20:54:49.076Z,56.30
2023-04-02T20:57:15.569Z,56.30
2023-04-02T20:59:42.051Z,56.80
2023-04-02T21:02:08.534Z,56.20
2023-04-02T21:04:35.031Z,56.20
2023-04-02T21:07:01.567Z,56.10
2023-04-02T21:09:28.022Z,56.10
2023-04-02T21:11:54.501Z,56.30
2023-04-02T21:14:20.975Z,56.10
2023-04-02T21:16:50.796Z,56.10
2023-04-02T21:19:17.259Z,56.20
2023-04-02T21:21:43.731Z,56.20
2023-04-02T21:24:10.195Z,56.00
2023-04-02T21:26:36.699Z,56.10
2023-04-02T21:29:03.220Z,56.60
2023-04-02T21:31:29.726Z,56.00
2023-04-02T21:33:56.206Z,56.10
2023-04-02T21:36:22.747Z,56.00
2023-04-02T21:38:49.260Z,56.00
2023-04-02T21:41:15.770Z,56.00
2023-04-02T21:43:42.236Z,56.10
2023-04-02T21:46:08.730Z,55.90
2023-04-02T21:48:35.197Z,56.10
2023-04-02T21:51:01.688Z,56.20
2023-04-02T21:53:28.193Z,56.00
2023-04-02T21:55:54.689Z,55.90
2023-04-02T21:58:21.164Z,56.00
2023-04-02T22:00:47.691Z,55.90
2023-04-02T22:03:21.499Z,56.00
2023-04-02T22:05:55.624Z,55.90
2023-04-02T22:08:22.102Z,55.90
2023-04-02T22:10:48.596Z,55.90
2023-04-02T22:13:15.086Z,55.80
2023-04-02T22:15:41.586Z,55.80
2023-04-02T22:18:08.049Z,55.80
2023-04-02T22:20:34.798Z,55.80
2023-04-02T22:23:01.508Z,55.90
2023-04-02T22:25:28.019Z,55.90
2023-04-02T22:27:54.474Z,55.80
2023-04-02T22:30:20.959Z,55.90
2023-04-02T22:32:47.476Z,55.70
2023-04-02T22:35:13.991Z,55.70
2023-04-02T22:37:40.492Z,55.70
2023-04-02T22:40:06.981Z,55.50
2023-04-02T22:42:33.550Z,55.60
2023-04-02T22:45:00.036Z,55.70
2023-04-02T22:47:26.546Z,55.60
2023-04-02T22:49:53.075Z,55.50
2023-04-02T22:52:19.554Z,55.70
2023-04-02T22:54:46.032Z,55.70
2023-04-02T22:57:12.557Z,55.60
2023-04-02T22:59:39.041Z,55.60
2023-04-02T23:02:05.656Z,55.60
2023-04-02T23:04:32.204Z,55.60
2023-04-02T23:06:58.693Z,55.60
2023-04-02T23:09:25.166Z,55.60
2023-04-02T23:11:51.641Z,55.50
2023-04-02T23:14:18.120Z,55.50
2023-04-02T23:16:44.583Z,55.30
2023-04-02T23:19:11.058Z,55.50
2023-04-02T23:21:37.541Z,55.50
2023-04-02T23:24:04.019Z,55.40
2023-04-02T23:26:30.505Z,55.50
2023-04-02T23:28:56.983Z,55.30
2023-04-02T23:31:23.592Z,55.50
2023-04-02T23:33:50.206Z,55.50
2023-04-02T23:36:16.778Z,55.20
2023-04-02T23:38:43.268Z,55.40
2023-04-02T23:41:09.777Z,55.30
2023-04-02T23:43:36.256Z,55.30
2023-04-02T23:46:02.725Z,55.30
2023-04-02T23:48:29.187Z,55.40
2023-04-02T23:50:55.659Z,55.40
2023-04-02T23:53:22.141Z,55.30
2023-04-02T23:55:48.618Z,55.60
2023-04-02T23:58:15.080Z,55.30
